LGEP weather

Epitalion Airport
Pyrgos, Ilia, Greece

Public forecast

Using degrees Celsius for public forecast. Weather courtesy of forecast.io.

METAR (pilot weather report)

Closest report is Andravida Air Base, 20.8 nm (38.6 km) NNW. Retrieved 2018/06/21 01:20 UTC (31 minutes ago):

LGAD 210120Z 00000KT 9999 FEW020 19/14 Q1015

TAF (pilot weather forecast)

Forecast is more than 12 hours old.

Closest forecast is Andravida Air Base, 20.8 nm (38.6 km) NNW. Retrieved 2011/03/20 15:06 UTC (7 years ago):

TAF TAF LGAD 201400Z 2015/2103 06010KT 9999 FEW020 BKN080 PROB40 TEMPO 2015/2021 6000 RA SCT020 BKN080 PROB30 TEMPO 2015/2021 4000 TSRA FEW018CB SCT025 BKN080